sensor_id;sensor_type;location;lat;lon;timestamp;temperature;humidity
14378;DHT22;7272;53.668;9.578;2022-10-31T00:01:27;14.40;99.90
14378;DHT22;7272;53.668;9.578;2022-10-31T00:04:29;14.40;99.90
14378;DHT22;7272;53.668;9.578;2022-10-31T00:07:34;14.50;99.90
14378;DHT22;7272;53.668;9.578;2022-10-31T00:10:41;14.50;99.90
14378;DHT22;7272;53.668;9.578;2022-10-31T00:13:46;14.60;99.90
14378;DHT22;7272;53.668;9.578;2022-10-31T00:16:53;14.70;99.90
14378;DHT22;7272;53.668;9.578;2022-10-31T00:19:56;14.70;99.90
14378;DHT22;7272;53.668;9.578;2022-10-31T00:22:59;14.80;99.90
14378;DHT22;7272;53.668;9.578;2022-10-31T00:26:04;14.80;99.90
14378;DHT22;7272;53.668;9.578;2022-10-31T00:29:07;14.80;99.90
14378;DHT22;7272;53.668;9.578;2022-10-31T00:32:12;14.80;99.90
14378;DHT22;7272;53.668;9.578;2022-10-31T00:35:17;14.80;99.90
14378;DHT22;7272;53.668;9.578;2022-10-31T00:38:20;14.80;99.90
14378;DHT22;7272;53.668;9.578;2022-10-31T00:41:37;14.80;99.90
14378;DHT22;7272;53.668;9.578;2022-10-31T00:44:46;15.00;99.90
14378;DHT22;7272;53.668;9.578;2022-10-31T00:47:49;15.00;99.90
14378;DHT22;7272;53.668;9.578;2022-10-31T00:50:51;15.00;99.90
14378;DHT22;7272;53.668;9.578;2022-10-31T00:53:54;15.00;99.90
14378;DHT22;7272;53.668;9.578;2022-10-31T00:56:59;15.00;99.90
14378;DHT22;7272;53.668;9.578;2022-10-31T01:00:10;15.00;99.90
14378;DHT22;7272;53.668;9.578;2022-10-31T01:03:12;15.00;99.90
14378;DHT22;7272;53.668;9.578;2022-10-31T01:06:16;15.00;99.90
14378;DHT22;7272;53.668;9.578;2022-10-31T01:09:21;14.90;99.90
14378;DHT22;7272;53.668;9.578;2022-10-31T01:12:28;15.00;99.90
14378;DHT22;7272;53.668;9.578;2022-10-31T01:15:31;14.90;99.90
14378;DHT22;7272;53.668;9.578;2022-10-31T01:18:34;15.00;99.90
14378;DHT22;7272;53.668;9.578;2022-10-31T01:21:38;14.90;99.90
14378;DHT22;7272;53.668;9.578;2022-10-31T01:24:41;14.90;99.90
14378;DHT22;7272;53.668;9.578;2022-10-31T01:27:44;15.00;99.90
14378;DHT22;7272;53.668;9.578;2022-10-31T01:30:46;14.90;99.90
14378;DHT22;7272;53.668;9.578;2022-10-31T01:33:51;14.90;99.90
14378;DHT22;7272;53.668;9.578;2022-10-31T01:36:53;14.90;99.90
14378;DHT22;7272;53.668;9.578;2022-10-31T01:39:57;14.80;99.90
14378;DHT22;7272;53.668;9.578;2022-10-31T01:43:00;15.00;99.90
14378;DHT22;7272;53.668;9.578;2022-10-31T01:46:04;15.10;99.90
14378;DHT22;7272;53.668;9.578;2022-10-31T01:49:11;15.10;99.90
14378;DHT22;7272;53.668;9.578;2022-10-31T01:52:20;15.10;99.90
14378;DHT22;7272;53.668;9.578;2022-10-31T01:55:28;15.20;99.90
14378;DHT22;7272;53.668;9.578;2022-10-31T01:58:33;15.20;99.90
14378;DHT22;7272;53.668;9.578;2022-10-31T02:01:37;15.20;99.90
14378;DHT22;7272;53.668;9.578;2022-10-31T02:04:40;15.10;99.90
14378;DHT22;7272;53.668;9.578;2022-10-31T02:07:45;15.10;99.90
14378;DHT22;7272;53.668;9.578;2022-10-31T02:10:50;15.00;99.90
14378;DHT22;7272;53.668;9.578;2022-10-31T02:13:58;15.10;99.90
14378;DHT22;7272;53.668;9.578;2022-10-31T02:17:01;15.00;99.90
14378;DHT22;7272;53.668;9.578;2022-10-31T02:20:12;15.00;99.90
14378;DHT22;7272;53.668;9.578;2022-10-31T02:23:42;15.00;99.90
14378;DHT22;7272;53.668;9.578;2022-10-31T02:26:58;14.90;99.90
14378;DHT22;7272;53.668;9.578;2022-10-31T02:30:09;14.90;99.90
14378;DHT22;7272;53.668;9.578;2022-10-31T02:33:23;14.90;99.90
14378;DHT22;7272;53.668;9.578;2022-10-31T02:36:32;14.80;99.90
14378;DHT22;7272;53.668;9.578;2022-10-31T02:39:46;14.80;99.90
14378;DHT22;7272;53.668;9.578;2022-10-31T02:43:06;14.80;99.90
14378;DHT22;7272;53.668;9.578;2022-10-31T02:46:18;14.80;99.90
14378;DHT22;7272;53.668;9.578;2022-10-31T02:49:27;14.80;99.90
14378;DHT22;7272;53.668;9.578;2022-10-31T02:52:33;14.70;99.90
14378;DHT22;7272;53.668;9.578;2022-10-31T02:55:56;14.70;99.90
14378;DHT22;7272;53.668;9.578;2022-10-31T02:59:01;14.70;99.90
14378;DHT22;7272;53.668;9.578;2022-10-31T03:02:12;14.80;99.90
14378;DHT22;7272;53.668;9.578;2022-10-31T03:05:44;14.80;99.90
14378;DHT22;7272;53.668;9.578;2022-10-31T03:08:55;14.80;99.90
14378;DHT22;7272;53.668;9.578;2022-10-31T03:12:07;14.70;99.90
14378;DHT22;7272;53.668;9.578;2022-10-31T03:15:14;14.90;99.90
14378;DHT22;7272;53.668;9.578;2022-10-31T03:18:22;14.90;99.90
14378;DHT22;7272;53.668;9.578;2022-10-31T03:21:33;14.80;99.90
14378;DHT22;7272;53.668;9.578;2022-10-31T03:24:38;14.80;99.90
14378;DHT22;7272;53.668;9.578;2022-10-31T03:27:42;14.80;99.90
14378;DHT22;7272;53.668;9.578;2022-10-31T03:30:48;14.70;99.90
14378;DHT22;7272;53.668;9.578;2022-10-31T03:33:52;14.70;99.90
14378;DHT22;7272;53.668;9.578;2022-10-31T03:36:59;14.60;99.90
14378;DHT22;7272;53.668;9.578;2022-10-31T03:40:06;14.60;99.90
14378;DHT22;7272;53.668;9.578;2022-10-31T03:43:15;14.60;99.90
14378;DHT22;7272;53.668;9.578;2022-10-31T03:46:18;14.50;99.90
14378;DHT22;7272;53.668;9.578;2022-10-31T03:49:21;14.50;99.90
14378;DHT22;7272;53.668;9.578;2022-10-31T03:52:27;14.50;99.90
14378;DHT22;7272;53.668;9.578;2022-10-31T03:55:39;14.50;99.90
14378;DHT22;7272;53.668;9.578;2022-10-31T03:58:51;14.40;99.90
14378;DHT22;7272;53.668;9.578;2022-10-31T04:02:01;14.40;99.90
14378;DHT22;7272;53.668;9.578;2022-10-31T04:05:05;14.40;99.90
14378;DHT22;7272;53.668;9.578;2022-10-31T04:08:12;14.40;99.90
14378;DHT22;7272;53.668;9.578;2022-10-31T04:11:20;14.40;99.90
14378;DHT22;7272;53.668;9.578;2022-10-31T04:14:47;14.40;99.90
14378;DHT22;7272;53.668;9.578;2022-10-31T04:17:56;14.30;99.90
14378;DHT22;7272;53.668;9.578;2022-10-31T04:21:01;14.30;99.90
14378;DHT22;7272;53.668;9.578;2022-10-31T04:24:06;14.30;99.90
14378;DHT22;7272;53.668;9.578;2022-10-31T04:27:08;14.30;99.90
14378;DHT22;7272;53.668;9.578;2022-10-31T04:30:11;14.30;99.90
14378;DHT22;7272;53.668;9.578;2022-10-31T04:33:15;14.30;99.90
14378;DHT22;7272;53.668;9.578;2022-10-31T04:36:20;14.30;99.90
14378;DHT22;7272;53.668;9.578;2022-10-31T04:39:24;14.30;99.90
14378;DHT22;7272;53.668;9.578;2022-10-31T04:42:45;14.30;99.90
14378;DHT22;7272;53.668;9.578;2022-10-31T04:45:47;14.30;99.90
14378;DHT22;7272;53.668;9.578;2022-10-31T04:48:49;14.40;99.90
14378;DHT22;7272;53.668;9.578;2022-10-31T04:51:52;14.40;99.90
14378;DHT22;7272;53.668;9.578;2022-10-31T04:54:55;14.40;99.90
14378;DHT22;7272;53.668;9.578;2022-10-31T04:58:23;14.40;99.90
14378;DHT22;7272;53.668;9.578;2022-10-31T05:01:25;14.50;99.90
14378;DHT22;7272;53.668;9.578;2022-10-31T05:04:29;14.40;99.90
14378;DHT22;7272;53.668;9.578;2022-10-31T05:07:32;14.50;99.90
14378;DHT22;7272;53.668;9.578;2022-10-31T05:10:35;14.50;99.90
14378;DHT22;7272;53.668;9.578;2022-10-31T05:13:38;14.50;99.90
14378;DHT22;7272;53.668;9.578;2022-10-31T05:16:47;14.50;99.90
14378;DHT22;7272;53.668;9.578;2022-10-31T05:20:17;14.60;99.90
14378;DHT22;7272;53.668;9.578;2022-10-31T05:23:40;14.60;99.90
14378;DHT22;7272;53.668;9.578;2022-10-31T05:26:43;14.70;99.90
14378;DHT22;7272;53.668;9.578;2022-10-31T05:29:48;14.60;99.90
14378;DHT22;7272;53.668;9.578;2022-10-31T05:32:51;14.60;99.90
14378;DHT22;7272;53.668;9.578;2022-10-31T05:36:11;14.60;99.90
14378;DHT22;7272;53.668;9.578;2022-10-31T05:39:23;14.70;99.90
14378;DHT22;7272;53.668;9.578;2022-10-31T05:42:31;14.60;99.90
14378;DHT22;7272;53.668;9.578;2022-10-31T05:45:33;14.60;99.90
14378;DHT22;7272;53.668;9.578;2022-10-31T05:48:40;14.60;99.90
14378;DHT22;7272;53.668;9.578;2022-10-31T05:52:01;14.60;99.90
14378;DHT22;7272;53.668;9.578;2022-10-31T05:55:19;14.60;99.90
14378;DHT22;7272;53.668;9.578;2022-10-31T05:58:41;14.60;99.90
14378;DHT22;7272;53.668;9.578;2022-10-31T06:01:43;14.70;99.90
14378;DHT22;7272;53.668;9.578;2022-10-31T06:05:00;14.70;99.90
14378;DHT22;7272;53.668;9.578;2022-10-31T06:08:02;14.60;99.90
14378;DHT22;7272;53.668;9.578;2022-10-31T06:11:05;14.70;99.90
14378;DHT22;7272;53.668;9.578;2022-10-31T06:14:27;14.60;99.90
14378;DHT22;7272;53.668;9.578;2022-10-31T06:17:33;14.70;99.90
14378;DHT22;7272;53.668;9.578;2022-10-31T06:21:01;14.70;99.90
14378;DHT22;7272;53.668;9.578;2022-10-31T06:24:04;14.70;99.90
14378;DHT22;7272;53.668;9.578;2022-10-31T06:27:32;14.70;99.90
14378;DHT22;7272;53.668;9.578;2022-10-31T06:30:42;14.60;99.90
14378;DHT22;7272;53.668;9.578;2022-10-31T06:33:48;14.60;99.90
14378;DHT22;7272;53.668;9.578;2022-10-31T06:36:51;14.60;99.90
14378;DHT22;7272;53.668;9.578;2022-10-31T06:39:57;14.50;99.90
14378;DHT22;7272;53.668;9.578;2022-10-31T06:43:00;14.40;99.90
14378;DHT22;7272;53.668;9.578;2022-10-31T06:46:05;14.40;99.90
14378;DHT22;7272;53.668;9.578;2022-10-31T06:49:17;14.50;99.90
14378;DHT22;7272;53.668;9.578;2022-10-31T06:52:28;14.60;99.90
14378;DHT22;7272;53.668;9.578;2022-10-31T06:55:31;14.50;99.90
14378;DHT22;7272;53.668;9.578;2022-10-31T06:58:33;14.60;99.90
14378;DHT22;7272;53.668;9.578;2022-10-31T07:01:39;14.60;99.90
14378;DHT22;7272;53.668;9.578;2022-10-31T07:04:41;14.60;99.90
14378;DHT22;7272;53.668;9.578;2022-10-31T07:07:47;14.50;99.90
14378;DHT22;7272;53.668;9.578;2022-10-31T07:10:55;14.50;99.90
14378;DHT22;7272;53.668;9.578;2022-10-31T07:13:59;14.60;99.90
14378;DHT22;7272;53.668;9.578;2022-10-31T07:17:02;14.60;99.90
14378;DHT22;7272;53.668;9.578;2022-10-31T07:20:09;14.60;99.90
14378;DHT22;7272;53.668;9.578;2022-10-31T07:23:12;14.60;99.90
14378;DHT22;7272;53.668;9.578;2022-10-31T07:26:16;14.60;99.90
14378;DHT22;7272;53.668;9.578;2022-10-31T07:29:22;14.60;99.90
14378;DHT22;7272;53.668;9.578;2022-10-31T07:32:26;14.60;99.90
14378;DHT22;7272;53.668;9.578;2022-10-31T07:35:32;14.60;99.90
14378;DHT22;7272;53.668;9.578;2022-10-31T07:38:35;14.60;99.90
14378;DHT22;7272;53.668;9.578;2022-10-31T07:41:39;14.60;99.90
14378;DHT22;7272;53.668;9.578;2022-10-31T07:44:43;14.60;99.90
14378;DHT22;7272;53.668;9.578;2022-10-31T07:48:05;14.60;99.90
14378;DHT22;7272;53.668;9.578;2022-10-31T07:51:36;14.70;99.90
14378;DHT22;7272;53.668;9.578;2022-10-31T07:54:56;14.60;99.90
14378;DHT22;7272;53.668;9.578;2022-10-31T07:57:59;14.50;99.90
14378;DHT22;7272;53.668;9.578;2022-10-31T08:01:03;14.50;99.90
14378;DHT22;7272;53.668;9.578;2022-10-31T08:04:15;14.50;99.90
14378;DHT22;7272;53.668;9.578;2022-10-31T08:07:36;14.50;99.90
14378;DHT22;7272;53.668;9.578;2022-10-31T08:10:41;14.40;99.90
14378;DHT22;7272;53.668;9.578;2022-10-31T08:13:44;14.40;99.90
14378;DHT22;7272;53.668;9.578;2022-10-31T08:16:48;14.40;99.90
14378;DHT22;7272;53.668;9.578;2022-10-31T08:19:52;14.40;99.90
14378;DHT22;7272;53.668;9.578;2022-10-31T08:23:00;14.40;99.90
14378;DHT22;7272;53.668;9.578;2022-10-31T08:26:02;14.40;99.90
14378;DHT22;7272;53.668;9.578;2022-10-31T08:29:06;14.50;99.90
14378;DHT22;7272;53.668;9.578;2022-10-31T08:32:11;14.60;99.90
14378;DHT22;7272;53.668;9.578;2022-10-31T08:35:33;14.70;99.90
14378;DHT22;7272;53.668;9.578;2022-10-31T08:38:58;14.80;99.90
14378;DHT22;7272;53.668;9.578;2022-10-31T08:42:04;14.80;99.90
14378;DHT22;7272;53.668;9.578;2022-10-31T08:45:07;14.80;99.90
14378;DHT22;7272;53.668;9.578;2022-10-31T08:48:12;14.90;99.90
14378;DHT22;7272;53.668;9.578;2022-10-31T08:51:16;14.90;99.90
14378;DHT22;7272;53.668;9.578;2022-10-31T08:54:18;15.00;99.90
14378;DHT22;7272;53.668;9.578;2022-10-31T08:57:23;15.00;99.90
14378;DHT22;7272;53.668;9.578;2022-10-31T09:00:27;15.00;99.90
14378;DHT22;7272;53.668;9.578;2022-10-31T09:03:36;15.10;99.90
14378;DHT22;7272;53.668;9.578;2022-10-31T09:06:40;15.10;99.90
14378;DHT22;7272;53.668;9.578;2022-10-31T09:09:43;15.10;99.90
14378;DHT22;7272;53.668;9.578;2022-10-31T09:12:45;15.20;99.90
14378;DHT22;7272;53.668;9.578;2022-10-31T09:16:27;15.20;99.90
14378;DHT22;7272;53.668;9.578;2022-10-31T09:19:29;15.30;99.90
14378;DHT22;7272;53.668;9.578;2022-10-31T09:22:33;15.30;99.90
14378;DHT22;7272;53.668;9.578;2022-10-31T09:25:35;15.40;99.90
14378;DHT22;7272;53.668;9.578;2022-10-31T09:29:03;15.40;99.90
14378;DHT22;7272;53.668;9.578;2022-10-31T09:32:06;15.50;99.90
14378;DHT22;7272;53.668;9.578;2022-10-31T09:35:14;15.60;99.90
14378;DHT22;7272;53.668;9.578;2022-10-31T09:38:19;15.70;99.90
14378;DHT22;7272;53.668;9.578;2022-10-31T09:41:28;15.70;99.90
14378;DHT22;7272;53.668;9.578;2022-10-31T09:44:42;15.80;99.90
14378;DHT22;7272;53.668;9.578;2022-10-31T09:48:20;15.70;99.90
14378;DHT22;7272;53.668;9.578;2022-10-31T09:51:56;15.90;99.90
14378;DHT22;7272;53.668;9.578;2022-10-31T09:55:14;16.00;99.90
14378;DHT22;7272;53.668;9.578;2022-10-31T09:58:20;15.90;99.90
14378;DHT22;7272;53.668;9.578;2022-10-31T10:01:45;15.90;99.90
14378;DHT22;7272;53.668;9.578;2022-10-31T10:04:55;15.90;99.90
14378;DHT22;7272;53.668;9.578;2022-10-31T10:08:03;15.80;99.90
14378;DHT22;7272;53.668;9.578;2022-10-31T10:11:50;15.90;99.90
14378;DHT22;7272;53.668;9.578;2022-10-31T10:18:40;15.80;99.90
14378;DHT22;7272;53.668;9.578;2022-10-31T10:21:48;15.80;99.90
14378;DHT22;7272;53.668;9.578;2022-10-31T10:25:01;15.80;99.90
14378;DHT22;7272;53.668;9.578;2022-10-31T10:28:16;15.80;99.90
14378;DHT22;7272;53.668;9.578;2022-10-31T10:31:24;15.80;99.90
14378;DHT22;7272;53.668;9.578;2022-10-31T10:34:31;15.80;99.90
14378;DHT22;7272;53.668;9.578;2022-10-31T10:37:39;15.90;99.90
14378;DHT22;7272;53.668;9.578;2022-10-31T10:40:43;16.00;99.90
14378;DHT22;7272;53.668;9.578;2022-10-31T10:43:50;15.90;99.90
14378;DHT22;7272;53.668;9.578;2022-10-31T10:46:56;15.90;99.90
14378;DHT22;7272;53.668;9.578;2022-10-31T10:50:19;15.90;99.90
14378;DHT22;7272;53.668;9.578;2022-10-31T10:53:38;16.00;99.90
14378;DHT22;7272;53.668;9.578;2022-10-31T10:56:58;16.00;99.90
14378;DHT22;7272;53.668;9.578;2022-10-31T11:00:16;16.00;99.90
14378;DHT22;7272;53.668;9.578;2022-10-31T11:03:21;16.00;99.90
14378;DHT22;7272;53.668;9.578;2022-10-31T11:06:23;16.10;99.90
14378;DHT22;7272;53.668;9.578;2022-10-31T11:09:27;16.10;99.90
14378;DHT22;7272;53.668;9.578;2022-10-31T11:12:31;16.20;99.90
14378;DHT22;7272;53.668;9.578;2022-10-31T11:15:50;16.20;99.90
14378;DHT22;7272;53.668;9.578;2022-10-31T11:18:54;16.30;99.90
14378;DHT22;7272;53.668;9.578;2022-10-31T11:22:08;16.40;99.90
14378;DHT22;7272;53.668;9.578;2022-10-31T11:25:22;16.40;99.90
14378;DHT22;7272;53.668;9.578;2022-10-31T11:28:25;16.50;99.90
14378;DHT22;7272;53.668;9.578;2022-10-31T11:31:32;16.60;99.90
14378;DHT22;7272;53.668;9.578;2022-10-31T11:34:39;16.60;99.90
14378;DHT22;7272;53.668;9.578;2022-10-31T11:37:47;16.60;99.90
14378;DHT22;7272;53.668;9.578;2022-10-31T11:40:59;16.60;99.90
14378;DHT22;7272;53.668;9.578;2022-10-31T11:44:04;16.60;99.90
14378;DHT22;7272;53.668;9.578;2022-10-31T11:47:14;16.60;99.90
14378;DHT22;7272;53.668;9.578;2022-10-31T11:50:20;16.70;99.90
14378;DHT22;7272;53.668;9.578;2022-10-31T11:53:27;16.60;99.90
14378;DHT22;7272;53.668;9.578;2022-10-31T11:56:38;16.60;99.90
14378;DHT22;7272;53.668;9.578;2022-10-31T12:01:24;16.60;99.90
14378;DHT22;7272;53.668;9.578;2022-10-31T12:04:40;16.70;99.90
14378;DHT22;7272;53.668;9.578;2022-10-31T12:07:43;16.70;99.90
14378;DHT22;7272;53.668;9.578;2022-10-31T12:10:53;16.70;99.90
14378;DHT22;7272;53.668;9.578;2022-10-31T12:14:08;16.70;99.90
14378;DHT22;7272;53.668;9.578;2022-10-31T12:17:16;16.70;99.90
14378;DHT22;7272;53.668;9.578;2022-10-31T12:20:29;16.70;99.90
14378;DHT22;7272;53.668;9.578;2022-10-31T12:23:43;16.60;99.90
14378;DHT22;7272;53.668;9.578;2022-10-31T12:26:56;16.60;99.90
14378;DHT22;7272;53.668;9.578;2022-10-31T12:30:13;16.60;99.90
14378;DHT22;7272;53.668;9.578;2022-10-31T12:33:39;16.60;99.90
14378;DHT22;7272;53.668;9.578;2022-10-31T12:40:48;16.60;99.90
14378;DHT22;7272;53.668;9.578;2022-10-31T12:43:58;16.60;99.90
14378;DHT22;7272;53.668;9.578;2022-10-31T12:47:17;16.60;99.90
14378;DHT22;7272;53.668;9.578;2022-10-31T12:50:35;16.60;99.90
14378;DHT22;7272;53.668;9.578;2022-10-31T12:58:52;16.50;99.90
14378;DHT22;7272;53.668;9.578;2022-10-31T13:06:38;16.50;99.90
14378;DHT22;7272;53.668;9.578;2022-10-31T13:11:02;16.40;99.90
14378;DHT22;7272;53.668;9.578;2022-10-31T13:14:23;16.30;99.90
14378;DHT22;7272;53.668;9.578;2022-10-31T13:17:34;16.30;99.90
14378;DHT22;7272;53.668;9.578;2022-10-31T13:20:59;16.30;99.90
14378;DHT22;7272;53.668;9.578;2022-10-31T13:24:12;16.30;99.90
14378;DHT22;7272;53.668;9.578;2022-10-31T13:27:48;16.30;99.90
14378;DHT22;7272;53.668;9.578;2022-10-31T13:31:00;16.50;99.90
14378;DHT22;7272;53.668;9.578;2022-10-31T13:34:45;16.40;99.90
14378;DHT22;7272;53.668;9.578;2022-10-31T13:38:01;16.30;99.90
14378;DHT22;7272;53.668;9.578;2022-10-31T13:41:23;16.20;99.90
14378;DHT22;7272;53.668;9.578;2022-10-31T13:44:28;16.10;99.90
14378;DHT22;7272;53.668;9.578;2022-10-31T13:47:35;16.00;99.90
14378;DHT22;7272;53.668;9.578;2022-10-31T13:50:39;16.00;99.90
14378;DHT22;7272;53.668;9.578;2022-10-31T13:53:44;15.90;99.90
14378;DHT22;7272;53.668;9.578;2022-10-31T13:56:48;15.90;99.90
14378;DHT22;7272;53.668;9.578;2022-10-31T13:59:56;15.90;99.90
14378;DHT22;7272;53.668;9.578;2022-10-31T14:03:26;15.80;99.90
14378;DHT22;7272;53.668;9.578;2022-10-31T14:06:50;15.80;99.90
14378;DHT22;7272;53.668;9.578;2022-10-31T14:09:56;15.80;99.90
14378;DHT22;7272;53.668;9.578;2022-10-31T14:13:05;15.80;99.90
14378;DHT22;7272;53.668;9.578;2022-10-31T14:16:18;16.00;99.90
14378;DHT22;7272;53.668;9.578;2022-10-31T14:19:23;16.30;99.90
14378;DHT22;7272;53.668;9.578;2022-10-31T14:22:29;16.20;99.90
14378;DHT22;7272;53.668;9.578;2022-10-31T14:25:33;16.20;99.90
14378;DHT22;7272;53.668;9.578;2022-10-31T14:28:36;16.10;99.90
14378;DHT22;7272;53.668;9.578;2022-10-31T14:31:39;16.00;99.90
14378;DHT22;7272;53.668;9.578;2022-10-31T14:34:52;15.90;99.90
14378;DHT22;7272;53.668;9.578;2022-10-31T14:38:19;15.90;99.90
14378;DHT22;7272;53.668;9.578;2022-10-31T14:41:58;15.80;99.90
14378;DHT22;7272;53.668;9.578;2022-10-31T14:45:17;15.70;99.90
14378;DHT22;7272;53.668;9.578;2022-10-31T14:48:34;15.60;99.90
14378;DHT22;7272;53.668;9.578;2022-10-31T14:51:44;15.60;99.90
14378;DHT22;7272;53.668;9.578;2022-10-31T14:54:52;15.60;99.90
14378;DHT22;7272;53.668;9.578;2022-10-31T14:57:56;15.50;99.90
14378;DHT22;7272;53.668;9.578;2022-10-31T15:00:59;15.50;99.90
14378;DHT22;7272;53.668;9.578;2022-10-31T15:04:05;15.60;99.90
14378;DHT22;7272;53.668;9.578;2022-10-31T15:07:14;15.60;99.90
14378;DHT22;7272;53.668;9.578;2022-10-31T15:10:23;15.60;99.90
14378;DHT22;7272;53.668;9.578;2022-10-31T15:13:26;15.60;99.90
14378;DHT22;7272;53.668;9.578;2022-10-31T15:16:32;15.50;99.90
14378;DHT22;7272;53.668;9.578;2022-10-31T15:19:35;15.40;99.90
14378;DHT22;7272;53.668;9.578;2022-10-31T15:22:39;15.40;99.90
14378;DHT22;7272;53.668;9.578;2022-10-31T15:25:41;15.50;99.90
14378;DHT22;7272;53.668;9.578;2022-10-31T15:28:43;15.50;99.90
14378;DHT22;7272;53.668;9.578;2022-10-31T15:31:52;15.40;99.90
14378;DHT22;7272;53.668;9.578;2022-10-31T15:34:55;15.30;99.90
14378;DHT22;7272;53.668;9.578;2022-10-31T15:37:59;15.30;99.90
14378;DHT22;7272;53.668;9.578;2022-10-31T15:41:04;15.20;99.90
14378;DHT22;7272;53.668;9.578;2022-10-31T15:44:12;15.20;99.90
14378;DHT22;7272;53.668;9.578;2022-10-31T15:47:17;15.20;99.90
14378;DHT22;7272;53.668;9.578;2022-10-31T15:50:21;15.20;99.90
14378;DHT22;7272;53.668;9.578;2022-10-31T15:53:27;15.10;99.90
14378;DHT22;7272;53.668;9.578;2022-10-31T15:56:31;15.10;99.90
14378;DHT22;7272;53.668;9.578;2022-10-31T15:59:33;15.10;99.90
14378;DHT22;7272;53.668;9.578;2022-10-31T16:02:35;15.10;99.90
14378;DHT22;7272;53.668;9.578;2022-10-31T16:05:39;15.00;99.90
14378;DHT22;7272;53.668;9.578;2022-10-31T16:08:48;15.10;99.90
14378;DHT22;7272;53.668;9.578;2022-10-31T16:11:51;15.20;99.90
14378;DHT22;7272;53.668;9.578;2022-10-31T16:14:54;15.20;99.90
14378;DHT22;7272;53.668;9.578;2022-10-31T16:17:56;15.20;99.90
14378;DHT22;7272;53.668;9.578;2022-10-31T16:20:58;15.10;99.90
14378;DHT22;7272;53.668;9.578;2022-10-31T16:24:04;15.10;99.90
14378;DHT22;7272;53.668;9.578;2022-10-31T16:27:17;15.00;99.90
14378;DHT22;7272;53.668;9.578;2022-10-31T16:30:35;15.00;99.90
14378;DHT22;7272;53.668;9.578;2022-10-31T16:33:38;15.00;99.90
14378;DHT22;7272;53.668;9.578;2022-10-31T16:36:41;14.90;99.90
14378;DHT22;7272;53.668;9.578;2022-10-31T16:39:45;15.10;99.90
14378;DHT22;7272;53.668;9.578;2022-10-31T16:42:47;15.10;99.90
14378;DHT22;7272;53.668;9.578;2022-10-31T16:45:50;15.00;99.90
14378;DHT22;7272;53.668;9.578;2022-10-31T16:48:52;15.00;99.90
14378;DHT22;7272;53.668;9.578;2022-10-31T16:51:54;15.00;99.90
14378;DHT22;7272;53.668;9.578;2022-10-31T16:54:58;14.90;99.90
14378;DHT22;7272;53.668;9.578;2022-10-31T16:58:01;14.90;99.90
14378;DHT22;7272;53.668;9.578;2022-10-31T17:01:05;14.90;99.90
14378;DHT22;7272;53.668;9.578;2022-10-31T17:04:09;14.90;99.90
14378;DHT22;7272;53.668;9.578;2022-10-31T17:07:13;14.90;99.90
14378;DHT22;7272;53.668;9.578;2022-10-31T17:10:17;14.90;99.90
14378;DHT22;7272;53.668;9.578;2022-10-31T17:13:21;14.80;99.90
14378;DHT22;7272;53.668;9.578;2022-10-31T17:16:23;14.90;99.90
14378;DHT22;7272;53.668;9.578;2022-10-31T17:19:25;14.80;99.90
14378;DHT22;7272;53.668;9.578;2022-10-31T17:22:28;14.80;99.90
14378;DHT22;7272;53.668;9.578;2022-10-31T17:25:31;14.80;99.90
14378;DHT22;7272;53.668;9.578;2022-10-31T17:28:33;14.80;99.90
14378;DHT22;7272;53.668;9.578;2022-10-31T17:31:35;14.80;99.90
14378;DHT22;7272;53.668;9.578;2022-10-31T17:34:38;14.70;99.90
14378;DHT22;7272;53.668;9.578;2022-10-31T17:37:41;14.70;99.90
14378;DHT22;7272;53.668;9.578;2022-10-31T17:40:45;14.70;99.90
14378;DHT22;7272;53.668;9.578;2022-10-31T17:43:47;14.60;99.90
14378;DHT22;7272;53.668;9.578;2022-10-31T17:46:48;14.60;99.90
14378;DHT22;7272;53.668;9.578;2022-10-31T17:49:50;14.80;99.90
14378;DHT22;7272;53.668;9.578;2022-10-31T17:52:53;14.80;99.90
14378;DHT22;7272;53.668;9.578;2022-10-31T17:56:00;14.70;99.90
14378;DHT22;7272;53.668;9.578;2022-10-31T17:59:03;14.60;99.90
14378;DHT22;7272;53.668;9.578;2022-10-31T18:02:05;14.60;99.90
14378;DHT22;7272;53.668;9.578;2022-10-31T18:05:09;14.50;99.90
14378;DHT22;7272;53.668;9.578;2022-10-31T18:08:11;14.50;99.90
14378;DHT22;7272;53.668;9.578;2022-10-31T18:11:16;14.50;99.90
14378;DHT22;7272;53.668;9.578;2022-10-31T18:14:20;14.50;99.90
14378;DHT22;7272;53.668;9.578;2022-10-31T18:17:21;14.40;99.90
14378;DHT22;7272;53.668;9.578;2022-10-31T18:20:24;14.40;99.90
14378;DHT22;7272;53.668;9.578;2022-10-31T18:23:26;14.40;99.90
14378;DHT22;7272;53.668;9.578;2022-10-31T18:26:30;14.40;99.90
14378;DHT22;7272;53.668;9.578;2022-10-31T18:29:32;14.40;99.90
14378;DHT22;7272;53.668;9.578;2022-10-31T18:32:33;14.40;99.90
14378;DHT22;7272;53.668;9.578;2022-10-31T18:35:36;14.30;99.90
14378;DHT22;7272;53.668;9.578;2022-10-31T18:38:39;14.30;99.90
14378;DHT22;7272;53.668;9.578;2022-10-31T18:41:42;14.30;99.90
14378;DHT22;7272;53.668;9.578;2022-10-31T18:44:44;14.30;99.90
14378;DHT22;7272;53.668;9.578;2022-10-31T18:47:46;14.20;99.90
14378;DHT22;7272;53.668;9.578;2022-10-31T18:50:48;14.20;99.90
14378;DHT22;7272;53.668;9.578;2022-10-31T18:53:51;14.20;99.90
14378;DHT22;7272;53.668;9.578;2022-10-31T18:56:54;14.20;99.90
14378;DHT22;7272;53.668;9.578;2022-10-31T18:59:56;14.20;99.90
14378;DHT22;7272;53.668;9.578;2022-10-31T19:02:58;14.10;99.90
14378;DHT22;7272;53.668;9.578;2022-10-31T19:06:00;14.10;99.90
14378;DHT22;7272;53.668;9.578;2022-10-31T19:09:04;14.20;99.90
14378;DHT22;7272;53.668;9.578;2022-10-31T19:12:10;14.40;99.90
14378;DHT22;7272;53.668;9.578;2022-10-31T19:15:11;14.30;99.90
14378;DHT22;7272;53.668;9.578;2022-10-31T19:18:13;14.20;99.90
14378;DHT22;7272;53.668;9.578;2022-10-31T19:21:16;14.10;99.90
14378;DHT22;7272;53.668;9.578;2022-10-31T19:24:18;14.10;99.90
14378;DHT22;7272;53.668;9.578;2022-10-31T19:27:21;14.10;99.90
14378;DHT22;7272;53.668;9.578;2022-10-31T19:30:26;14.00;99.90
14378;DHT22;7272;53.668;9.578;2022-10-31T19:33:27;14.10;99.90
14378;DHT22;7272;53.668;9.578;2022-10-31T19:36:30;14.10;99.90
14378;DHT22;7272;53.668;9.578;2022-10-31T19:39:32;14.00;99.90
14378;DHT22;7272;53.668;9.578;2022-10-31T19:42:35;14.00;99.90
14378;DHT22;7272;53.668;9.578;2022-10-31T19:45:37;13.90;99.90
14378;DHT22;7272;53.668;9.578;2022-10-31T19:48:39;13.90;99.90
14378;DHT22;7272;53.668;9.578;2022-10-31T19:51:41;13.90;99.90
14378;DHT22;7272;53.668;9.578;2022-10-31T19:54:43;13.80;99.90
14378;DHT22;7272;53.668;9.578;2022-10-31T19:57:46;13.80;99.90
14378;DHT22;7272;53.668;9.578;2022-10-31T20:00:48;13.80;99.90
14378;DHT22;7272;53.668;9.578;2022-10-31T20:03:50;13.80;99.90
14378;DHT22;7272;53.668;9.578;2022-10-31T20:06:52;13.90;99.90
14378;DHT22;7272;53.668;9.578;2022-10-31T20:09:54;13.80;99.90
14378;DHT22;7272;53.668;9.578;2022-10-31T20:12:57;13.80;99.90
14378;DHT22;7272;53.668;9.578;2022-10-31T20:16:01;13.80;99.90
14378;DHT22;7272;53.668;9.578;2022-10-31T20:19:04;13.80;99.90
14378;DHT22;7272;53.668;9.578;2022-10-31T20:22:06;13.80;99.90
14378;DHT22;7272;53.668;9.578;2022-10-31T20:25:07;13.70;99.90